Airport View

Enter AWOS ICAO identifier for current METAR.

ex. KFNL

KCBF 200050Z AUTO 07006KT 10SM CLR 02/M00 A3016 RMK AO2

20 Oct 2020 00:51

Frequency: 126.575

Phone: 712-323-1542

Other Area AWOS: KOMA - KOFF - KMLE - KBTA

TAF KOMA 192343Z 2000/2024 11006KT P6SM BKN120 FM201200 13010KT P6SM BKN025 FM201500 14010KT P6SM OVC015 FM201900 15010KT P6SM OVC025 FM202300 17008KT P6SM BKN040